sensor_id;sensor_type;location;lat;lon;timestamp;P1;durP1;ratioP1;P2;durP2;ratioP2
55559;SDS011;41414;53.250;6.514;2022-12-18T00:01:16;127.93;;;42.53;;
55559;SDS011;41414;53.250;6.514;2022-12-18T00:03:44;142.57;;;42.78;;
55559;SDS011;41414;53.250;6.514;2022-12-18T00:06:10;125.57;;;42.95;;
55559;SDS011;41414;53.250;6.514;2022-12-18T00:08:39;118.18;;;38.42;;
55559;SDS011;41414;53.250;6.514;2022-12-18T00:11:06;131.10;;;42.75;;
55559;SDS011;41414;53.250;6.514;2022-12-18T00:13:34;114.22;;;37.65;;
55559;SDS011;41414;53.250;6.514;2022-12-18T00:16:03;129.57;;;43.60;;
55559;SDS011;41414;53.250;6.514;2022-12-18T00:20:59;114.13;;;39.95;;
55559;SDS011;41414;53.250;6.514;2022-12-18T00:23:27;124.97;;;44.42;;
55559;SDS011;41414;53.250;6.514;2022-12-18T00:25:53;123.25;;;43.78;;
55559;SDS011;41414;53.250;6.514;2022-12-18T00:28:20;128.77;;;43.67;;
55559;SDS011;41414;53.250;6.514;2022-12-18T00:30:46;122.25;;;41.63;;
55559;SDS011;41414;53.250;6.514;2022-12-18T00:33:12;125.05;;;43.38;;
55559;SDS011;41414;53.250;6.514;2022-12-18T00:35:37;120.78;;;38.55;;
55559;SDS011;41414;53.250;6.514;2022-12-18T00:38:03;126.68;;;39.28;;
55559;SDS011;41414;53.250;6.514;2022-12-18T00:40:31;129.35;;;41.55;;
55559;SDS011;41414;53.250;6.514;2022-12-18T00:42:57;128.35;;;42.95;;
55559;SDS011;41414;53.250;6.514;2022-12-18T00:45:23;127.93;;;41.55;;
55559;SDS011;41414;53.250;6.514;2022-12-18T00:47:50;128.52;;;40.55;;
55559;SDS011;41414;53.250;6.514;2022-12-18T00:50:16;120.88;;;35.45;;
55559;SDS011;41414;53.250;6.514;2022-12-18T00:52:42;130.90;;;39.90;;
55559;SDS011;41414;53.250;6.514;2022-12-18T00:55:08;133.77;;;43.65;;
55559;SDS011;41414;53.250;6.514;2022-12-18T00:57:34;122.43;;;38.67;;
55559;SDS011;41414;53.250;6.514;2022-12-18T01:00:00;140.60;;;45.10;;
55559;SDS011;41414;53.250;6.514;2022-12-18T01:02:26;128.65;;;43.83;;
55559;SDS011;41414;53.250;6.514;2022-12-18T01:04:52;131.90;;;40.35;;
55559;SDS011;41414;53.250;6.514;2022-12-18T01:07:18;135.10;;;43.83;;
55559;SDS011;41414;53.250;6.514;2022-12-18T01:09:44;124.72;;;42.13;;
55559;SDS011;41414;53.250;6.514;2022-12-18T01:12:09;127.50;;;41.70;;
55559;SDS011;41414;53.250;6.514;2022-12-18T01:14:36;135.32;;;41.83;;
55559;SDS011;41414;53.250;6.514;2022-12-18T01:17:03;135.23;;;44.58;;
55559;SDS011;41414;53.250;6.514;2022-12-18T01:19:29;119.43;;;41.28;;
55559;SDS011;41414;53.250;6.514;2022-12-18T01:21:55;128.05;;;42.78;;
55559;SDS011;41414;53.250;6.514;2022-12-18T01:24:21;107.95;;;35.65;;
55559;SDS011;41414;53.250;6.514;2022-12-18T01:26:47;117.60;;;37.65;;
55559;SDS011;41414;53.250;6.514;2022-12-18T01:29:13;113.63;;;37.67;;
55559;SDS011;41414;53.250;6.514;2022-12-18T01:31:38;115.63;;;39.47;;
55559;SDS011;41414;53.250;6.514;2022-12-18T01:34:04;114.75;;;39.83;;
55559;SDS011;41414;53.250;6.514;2022-12-18T01:36:31;105.18;;;38.78;;
55559;SDS011;41414;53.250;6.514;2022-12-18T01:38:59;109.97;;;38.10;;
55559;SDS011;41414;53.250;6.514;2022-12-18T01:41:29;103.80;;;38.13;;
55559;SDS011;41414;53.250;6.514;2022-12-18T01:47:12;99.53;;;36.78;;
55559;SDS011;41414;53.250;6.514;2022-12-18T01:49:45;96.95;;;35.05;;
55559;SDS011;41414;53.250;6.514;2022-12-18T01:52:11;102.03;;;38.13;;
55559;SDS011;41414;53.250;6.514;2022-12-18T01:54:37;100.03;;;36.78;;
55559;SDS011;41414;53.250;6.514;2022-12-18T01:57:03;102.22;;;40.05;;
55559;SDS011;41414;53.250;6.514;2022-12-18T01:59:29;100.90;;;39.30;;
55559;SDS011;41414;53.250;6.514;2022-12-18T02:01:57;110.53;;;41.05;;
55559;SDS011;41414;53.250;6.514;2022-12-18T02:04:25;98.45;;;37.28;;
55559;SDS011;41414;53.250;6.514;2022-12-18T02:07:03;122.13;;;41.22;;
55559;SDS011;41414;53.250;6.514;2022-12-18T02:09:40;99.80;;;38.60;;
55559;SDS011;41414;53.250;6.514;2022-12-18T02:12:23;111.95;;;40.25;;
55559;SDS011;41414;53.250;6.514;2022-12-18T02:15:22;113.65;;;40.65;;
55559;SDS011;41414;53.250;6.514;2022-12-18T02:18:04;104.88;;;40.05;;
55559;SDS011;41414;53.250;6.514;2022-12-18T02:20:39;108.60;;;38.00;;
55559;SDS011;41414;53.250;6.514;2022-12-18T02:28:41;112.55;;;38.25;;
55559;SDS011;41414;53.250;6.514;2022-12-18T02:31:14;96.88;;;37.58;;
55559;SDS011;41414;53.250;6.514;2022-12-18T02:33:51;80.95;;;28.95;;
55559;SDS011;41414;53.250;6.514;2022-12-18T02:36:21;99.07;;;36.42;;
55559;SDS011;41414;53.250;6.514;2022-12-18T02:38:48;106.20;;;37.25;;
55559;SDS011;41414;53.250;6.514;2022-12-18T02:41:16;100.78;;;37.95;;
55559;SDS011;41414;53.250;6.514;2022-12-18T02:43:48;105.82;;;37.60;;
55559;SDS011;41414;53.250;6.514;2022-12-18T02:51:23;107.70;;;38.42;;
55559;SDS011;41414;53.250;6.514;2022-12-18T02:53:58;97.68;;;35.22;;
55559;SDS011;41414;53.250;6.514;2022-12-18T02:56:34;103.07;;;35.17;;
55559;SDS011;41414;53.250;6.514;2022-12-18T02:59:09;103.53;;;37.85;;
55559;SDS011;41414;53.250;6.514;2022-12-18T03:01:58;103.32;;;40.33;;
55559;SDS011;41414;53.250;6.514;2022-12-18T03:07:04;103.10;;;37.55;;
55559;SDS011;41414;53.250;6.514;2022-12-18T03:09:35;110.22;;;37.10;;
55559;SDS011;41414;53.250;6.514;2022-12-18T03:12:07;109.10;;;37.60;;
55559;SDS011;41414;53.250;6.514;2022-12-18T03:15:04;98.03;;;38.25;;
55559;SDS011;41414;53.250;6.514;2022-12-18T03:17:39;112.30;;;36.75;;
55559;SDS011;41414;53.250;6.514;2022-12-18T03:20:10;107.55;;;38.83;;
55559;SDS011;41414;53.250;6.514;2022-12-18T03:22:39;124.05;;;42.53;;
55559;SDS011;41414;53.250;6.514;2022-12-18T03:25:09;110.45;;;37.75;;
55559;SDS011;41414;53.250;6.514;2022-12-18T03:27:38;112.18;;;38.53;;
55559;SDS011;41414;53.250;6.514;2022-12-18T03:30:10;105.30;;;37.60;;
55559;SDS011;41414;53.250;6.514;2022-12-18T03:32:39;112.53;;;39.03;;
55559;SDS011;41414;53.250;6.514;2022-12-18T03:35:06;118.97;;;41.30;;
55559;SDS011;41414;53.250;6.514;2022-12-18T03:37:34;118.43;;;42.17;;
55559;SDS011;41414;53.250;6.514;2022-12-18T03:40:00;117.35;;;43.40;;
55559;SDS011;41414;53.250;6.514;2022-12-18T03:42:29;127.70;;;42.88;;
55559;SDS011;41414;53.250;6.514;2022-12-18T03:45:09;105.10;;;43.15;;
55559;SDS011;41414;53.250;6.514;2022-12-18T03:50:19;114.68;;;39.85;;
55559;SDS011;41414;53.250;6.514;2022-12-18T03:52:53;110.80;;;42.40;;
55559;SDS011;41414;53.250;6.514;2022-12-18T03:55:25;106.38;;;40.80;;
55559;SDS011;41414;53.250;6.514;2022-12-18T03:57:54;114.70;;;41.45;;
55559;SDS011;41414;53.250;6.514;2022-12-18T04:00:21;108.60;;;41.55;;
55559;SDS011;41414;53.250;6.514;2022-12-18T04:02:49;118.53;;;42.25;;
55559;SDS011;41414;53.250;6.514;2022-12-18T04:05:18;114.78;;;42.20;;
55559;SDS011;41414;53.250;6.514;2022-12-18T04:07:46;104.57;;;41.70;;
55559;SDS011;41414;53.250;6.514;2022-12-18T04:10:15;105.85;;;41.63;;
55559;SDS011;41414;53.250;6.514;2022-12-18T04:12:42;107.05;;;38.30;;
55559;SDS011;41414;53.250;6.514;2022-12-18T04:15:08;103.13;;;40.92;;
55559;SDS011;41414;53.250;6.514;2022-12-18T04:17:35;102.85;;;40.63;;
55559;SDS011;41414;53.250;6.514;2022-12-18T04:20:01;99.63;;;40.63;;
55559;SDS011;41414;53.250;6.514;2022-12-18T04:22:28;96.40;;;38.80;;
55559;SDS011;41414;53.250;6.514;2022-12-18T04:24:53;98.55;;;39.85;;
55559;SDS011;41414;53.250;6.514;2022-12-18T04:27:19;101.45;;;37.60;;
55559;SDS011;41414;53.250;6.514;2022-12-18T04:29:45;93.63;;;37.60;;
55559;SDS011;41414;53.250;6.514;2022-12-18T04:32:11;95.07;;;36.63;;
55559;SDS011;41414;53.250;6.514;2022-12-18T04:34:37;95.00;;;37.67;;
55559;SDS011;41414;53.250;6.514;2022-12-18T04:37:02;102.90;;;38.78;;
55559;SDS011;41414;53.250;6.514;2022-12-18T04:39:28;92.38;;;37.63;;
55559;SDS011;41414;53.250;6.514;2022-12-18T04:41:54;90.55;;;35.70;;
55559;SDS011;41414;53.250;6.514;2022-12-18T04:44:20;95.78;;;37.92;;
55559;SDS011;41414;53.250;6.514;2022-12-18T04:46:46;79.78;;;35.75;;
55559;SDS011;41414;53.250;6.514;2022-12-18T04:49:12;101.47;;;37.63;;
55559;SDS011;41414;53.250;6.514;2022-12-18T04:51:38;92.15;;;35.53;;
55559;SDS011;41414;53.250;6.514;2022-12-18T04:54:04;92.88;;;35.10;;
55559;SDS011;41414;53.250;6.514;2022-12-18T04:56:30;93.88;;;37.63;;
55559;SDS011;41414;53.250;6.514;2022-12-18T04:58:57;96.40;;;38.83;;
55559;SDS011;41414;53.250;6.514;2022-12-18T05:01:22;88.00;;;35.97;;
55559;SDS011;41414;53.250;6.514;2022-12-18T05:03:48;84.13;;;36.22;;
55559;SDS011;41414;53.250;6.514;2022-12-18T05:06:16;95.80;;;35.50;;
55559;SDS011;41414;53.250;6.514;2022-12-18T05:08:42;99.80;;;38.25;;
55559;SDS011;41414;53.250;6.514;2022-12-18T05:11:08;94.45;;;37.33;;
55559;SDS011;41414;53.250;6.514;2022-12-18T05:13:37;101.70;;;35.78;;
55559;SDS011;41414;53.250;6.514;2022-12-18T05:16:04;84.20;;;33.50;;
55559;SDS011;41414;53.250;6.514;2022-12-18T05:18:30;98.50;;;38.65;;
55559;SDS011;41414;53.250;6.514;2022-12-18T05:20:56;98.45;;;33.47;;
55559;SDS011;41414;53.250;6.514;2022-12-18T05:23:23;97.40;;;35.05;;
55559;SDS011;41414;53.250;6.514;2022-12-18T05:25:54;80.97;;;32.60;;
55559;SDS011;41414;53.250;6.514;2022-12-18T05:28:23;96.93;;;35.65;;
55559;SDS011;41414;53.250;6.514;2022-12-18T05:30:53;101.78;;;35.33;;
55559;SDS011;41414;53.250;6.514;2022-12-18T05:33:21;91.97;;;35.63;;
55559;SDS011;41414;53.250;6.514;2022-12-18T05:35:51;80.22;;;31.83;;
55559;SDS011;41414;53.250;6.514;2022-12-18T05:38:20;91.22;;;33.33;;
55559;SDS011;41414;53.250;6.514;2022-12-18T05:40:47;91.13;;;36.42;;
55559;SDS011;41414;53.250;6.514;2022-12-18T05:43:14;86.22;;;34.25;;
55559;SDS011;41414;53.250;6.514;2022-12-18T05:45:41;92.55;;;33.38;;
55559;SDS011;41414;53.250;6.514;2022-12-18T05:48:07;86.55;;;33.33;;
55559;SDS011;41414;53.250;6.514;2022-12-18T05:50:41;83.15;;;33.67;;
55559;SDS011;41414;53.250;6.514;2022-12-18T05:53:10;74.72;;;31.52;;
55559;SDS011;41414;53.250;6.514;2022-12-18T05:55:38;83.82;;;35.63;;
55559;SDS011;41414;53.250;6.514;2022-12-18T05:58:05;93.82;;;33.83;;
55559;SDS011;41414;53.250;6.514;2022-12-18T06:00:33;77.43;;;33.72;;
55559;SDS011;41414;53.250;6.514;2022-12-18T06:03:01;84.95;;;32.42;;
55559;SDS011;41414;53.250;6.514;2022-12-18T06:05:27;86.10;;;33.13;;
55559;SDS011;41414;53.250;6.514;2022-12-18T06:07:53;81.32;;;32.95;;
55559;SDS011;41414;53.250;6.514;2022-12-18T06:10:19;74.10;;;31.13;;
55559;SDS011;41414;53.250;6.514;2022-12-18T06:12:45;84.55;;;30.73;;
55559;SDS011;41414;53.250;6.514;2022-12-18T06:15:10;81.97;;;33.03;;
55559;SDS011;41414;53.250;6.514;2022-12-18T06:17:36;75.97;;;33.28;;
55559;SDS011;41414;53.250;6.514;2022-12-18T06:20:02;70.72;;;29.65;;
55559;SDS011;41414;53.250;6.514;2022-12-18T06:22:31;77.75;;;32.25;;
55559;SDS011;41414;53.250;6.514;2022-12-18T06:24:57;84.28;;;34.63;;
55559;SDS011;41414;53.250;6.514;2022-12-18T06:27:24;77.28;;;32.22;;
55559;SDS011;41414;53.250;6.514;2022-12-18T06:29:50;70.10;;;33.50;;
55559;SDS011;41414;53.250;6.514;2022-12-18T06:32:16;76.82;;;32.38;;
55559;SDS011;41414;53.250;6.514;2022-12-18T06:34:41;73.82;;;33.67;;
55559;SDS011;41414;53.250;6.514;2022-12-18T06:37:07;81.38;;;34.83;;
55559;SDS011;41414;53.250;6.514;2022-12-18T06:39:33;73.70;;;31.35;;
55559;SDS011;41414;53.250;6.514;2022-12-18T06:41:59;80.18;;;31.77;;
55559;SDS011;41414;53.250;6.514;2022-12-18T06:44:25;82.68;;;32.53;;
55559;SDS011;41414;53.250;6.514;2022-12-18T06:46:51;73.10;;;29.45;;
55559;SDS011;41414;53.250;6.514;2022-12-18T06:49:16;75.82;;;30.65;;
55559;SDS011;41414;53.250;6.514;2022-12-18T06:51:42;66.35;;;29.77;;
55559;SDS011;41414;53.250;6.514;2022-12-18T06:54:08;66.32;;;27.17;;
55559;SDS011;41414;53.250;6.514;2022-12-18T06:56:34;68.85;;;26.90;;
55559;SDS011;41414;53.250;6.514;2022-12-18T06:59:00;73.22;;;30.08;;
55559;SDS011;41414;53.250;6.514;2022-12-18T07:01:26;66.05;;;28.55;;
55559;SDS011;41414;53.250;6.514;2022-12-18T07:03:52;68.32;;;29.77;;
55559;SDS011;41414;53.250;6.514;2022-12-18T07:06:20;75.15;;;30.45;;
55559;SDS011;41414;53.250;6.514;2022-12-18T07:08:49;64.32;;;29.00;;
55559;SDS011;41414;53.250;6.514;2022-12-18T07:11:16;66.82;;;29.08;;
55559;SDS011;41414;53.250;6.514;2022-12-18T07:13:42;66.90;;;28.00;;
55559;SDS011;41414;53.250;6.514;2022-12-18T07:16:11;65.07;;;27.27;;
55559;SDS011;41414;53.250;6.514;2022-12-18T07:18:38;60.30;;;27.23;;
55559;SDS011;41414;53.250;6.514;2022-12-18T07:21:06;57.78;;;27.90;;
55559;SDS011;41414;53.250;6.514;2022-12-18T07:23:34;57.28;;;25.90;;
55559;SDS011;41414;53.250;6.514;2022-12-18T07:26:02;59.15;;;24.15;;
55559;SDS011;41414;53.250;6.514;2022-12-18T07:28:29;51.55;;;24.48;;
55559;SDS011;41414;53.250;6.514;2022-12-18T07:30:55;60.83;;;25.60;;
55559;SDS011;41414;53.250;6.514;2022-12-18T07:33:21;52.40;;;25.02;;
55559;SDS011;41414;53.250;6.514;2022-12-18T07:35:47;55.53;;;26.02;;
55559;SDS011;41414;53.250;6.514;2022-12-18T07:38:13;51.00;;;24.15;;
55559;SDS011;41414;53.250;6.514;2022-12-18T07:40:39;51.72;;;25.00;;
55559;SDS011;41414;53.250;6.514;2022-12-18T07:43:04;52.50;;;24.88;;
55559;SDS011;41414;53.250;6.514;2022-12-18T07:45:30;52.35;;;23.73;;
55559;SDS011;41414;53.250;6.514;2022-12-18T07:47:56;53.00;;;24.23;;
55559;SDS011;41414;53.250;6.514;2022-12-18T07:50:22;50.90;;;24.20;;
55559;SDS011;41414;53.250;6.514;2022-12-18T07:52:50;46.20;;;22.85;;
55559;SDS011;41414;53.250;6.514;2022-12-18T07:55:15;49.03;;;24.08;;
55559;SDS011;41414;53.250;6.514;2022-12-18T07:57:41;46.83;;;23.95;;
55559;SDS011;41414;53.250;6.514;2022-12-18T08:00:07;50.30;;;26.40;;
55559;SDS011;41414;53.250;6.514;2022-12-18T08:02:34;45.63;;;24.40;;
55559;SDS011;41414;53.250;6.514;2022-12-18T08:04:59;49.47;;;24.30;;
55559;SDS011;41414;53.250;6.514;2022-12-18T08:07:25;51.67;;;25.48;;
55559;SDS011;41414;53.250;6.514;2022-12-18T08:09:51;48.45;;;24.38;;
55559;SDS011;41414;53.250;6.514;2022-12-18T08:12:17;47.60;;;23.23;;
55559;SDS011;41414;53.250;6.514;2022-12-18T08:14:43;42.42;;;23.00;;
55559;SDS011;41414;53.250;6.514;2022-12-18T08:17:08;47.35;;;25.17;;
55559;SDS011;41414;53.250;6.514;2022-12-18T08:19:34;43.17;;;23.80;;
55559;SDS011;41414;53.250;6.514;2022-12-18T08:22:00;51.08;;;24.45;;
55559;SDS011;41414;53.250;6.514;2022-12-18T08:24:26;40.40;;;23.23;;
55559;SDS011;41414;53.250;6.514;2022-12-18T08:26:52;45.13;;;22.15;;
55559;SDS011;41414;53.250;6.514;2022-12-18T08:29:18;44.00;;;23.13;;
55559;SDS011;41414;53.250;6.514;2022-12-18T08:31:44;45.63;;;23.23;;
55559;SDS011;41414;53.250;6.514;2022-12-18T08:34:09;40.92;;;21.95;;
55559;SDS011;41414;53.250;6.514;2022-12-18T08:36:35;39.55;;;22.20;;
55559;SDS011;41414;53.250;6.514;2022-12-18T08:39:01;42.08;;;22.88;;
55559;SDS011;41414;53.250;6.514;2022-12-18T08:41:27;42.65;;;22.42;;
55559;SDS011;41414;53.250;6.514;2022-12-18T08:43:53;38.13;;;21.45;;
55559;SDS011;41414;53.250;6.514;2022-12-18T08:46:38;37.72;;;21.08;;
55559;SDS011;41414;53.250;6.514;2022-12-18T08:49:05;39.38;;;21.20;;
55559;SDS011;41414;53.250;6.514;2022-12-18T08:51:32;43.58;;;21.05;;
55559;SDS011;41414;53.250;6.514;2022-12-18T08:53:59;38.20;;;20.02;;
55559;SDS011;41414;53.250;6.514;2022-12-18T08:56:25;40.88;;;21.67;;
55559;SDS011;41414;53.250;6.514;2022-12-18T08:58:52;37.05;;;19.05;;
55559;SDS011;41414;53.250;6.514;2022-12-18T09:01:19;33.10;;;19.25;;
55559;SDS011;41414;53.250;6.514;2022-12-18T09:03:45;38.25;;;20.13;;
55559;SDS011;41414;53.250;6.514;2022-12-18T09:06:13;36.38;;;20.65;;
55559;SDS011;41414;53.250;6.514;2022-12-18T09:08:41;39.30;;;20.77;;
55559;SDS011;41414;53.250;6.514;2022-12-18T09:11:15;37.53;;;20.38;;
55559;SDS011;41414;53.250;6.514;2022-12-18T09:13:46;39.00;;;20.05;;
55559;SDS011;41414;53.250;6.514;2022-12-18T09:16:11;39.35;;;21.77;;
55559;SDS011;41414;53.250;6.514;2022-12-18T09:18:37;39.20;;;20.95;;
55559;SDS011;41414;53.250;6.514;2022-12-18T09:21:07;36.97;;;21.80;;
55559;SDS011;41414;53.250;6.514;2022-12-18T09:23:34;34.88;;;21.02;;
55559;SDS011;41414;53.250;6.514;2022-12-18T09:26:00;38.92;;;20.80;;
55559;SDS011;41414;53.250;6.514;2022-12-18T09:28:26;36.00;;;20.50;;
55559;SDS011;41414;53.250;6.514;2022-12-18T09:30:52;33.92;;;19.95;;
55559;SDS011;41414;53.250;6.514;2022-12-18T09:33:18;39.45;;;22.15;;
55559;SDS011;41414;53.250;6.514;2022-12-18T09:35:44;33.58;;;19.02;;
55559;SDS011;41414;53.250;6.514;2022-12-18T09:38:12;40.90;;;21.58;;
55559;SDS011;41414;53.250;6.514;2022-12-18T09:40:41;37.42;;;20.70;;
55559;SDS011;41414;53.250;6.514;2022-12-18T09:43:13;34.15;;;21.02;;
55559;SDS011;41414;53.250;6.514;2022-12-18T09:45:55;37.60;;;19.88;;
55559;SDS011;41414;53.250;6.514;2022-12-18T09:48:27;32.45;;;19.08;;
55559;SDS011;41414;53.250;6.514;2022-12-18T09:50:59;33.53;;;19.42;;
55559;SDS011;41414;53.250;6.514;2022-12-18T09:53:31;31.90;;;18.65;;
55559;SDS011;41414;53.250;6.514;2022-12-18T09:56:00;34.58;;;19.45;;
55559;SDS011;41414;53.250;6.514;2022-12-18T10:00:58;30.00;;;17.55;;
55559;SDS011;41414;53.250;6.514;2022-12-18T10:03:24;33.30;;;19.27;;
55559;SDS011;41414;53.250;6.514;2022-12-18T10:06:01;30.63;;;17.88;;
55559;SDS011;41414;53.250;6.514;2022-12-18T10:14:05;28.13;;;17.33;;
55559;SDS011;41414;53.250;6.514;2022-12-18T10:16:43;28.73;;;16.40;;
55559;SDS011;41414;53.250;6.514;2022-12-18T10:19:35;28.45;;;17.17;;
55559;SDS011;41414;53.250;6.514;2022-12-18T10:24:48;27.33;;;16.42;;
55559;SDS011;41414;53.250;6.514;2022-12-18T10:27:27;27.80;;;16.30;;
55559;SDS011;41414;53.250;6.514;2022-12-18T10:29:54;23.85;;;15.85;;
55559;SDS011;41414;53.250;6.514;2022-12-18T10:32:21;23.10;;;14.57;;
55559;SDS011;41414;53.250;6.514;2022-12-18T10:34:51;21.42;;;14.23;;
55559;SDS011;41414;53.250;6.514;2022-12-18T10:37:19;22.92;;;13.35;;
55559;SDS011;41414;53.250;6.514;2022-12-18T10:40:05;24.52;;;13.35;;
55559;SDS011;41414;53.250;6.514;2022-12-18T10:42:32;26.00;;;14.40;;
55559;SDS011;41414;53.250;6.514;2022-12-18T10:45:02;24.27;;;14.93;;
55559;SDS011;41414;53.250;6.514;2022-12-18T10:47:33;25.25;;;15.15;;
55559;SDS011;41414;53.250;6.514;2022-12-18T10:49:59;25.33;;;15.32;;
55559;SDS011;41414;53.250;6.514;2022-12-18T10:52:26;23.33;;;13.75;;
55559;SDS011;41414;53.250;6.514;2022-12-18T10:54:54;21.33;;;13.32;;
55559;SDS011;41414;53.250;6.514;2022-12-18T11:02:50;23.92;;;13.95;;
55559;SDS011;41414;53.250;6.514;2022-12-18T11:05:30;21.48;;;13.32;;
55559;SDS011;41414;53.250;6.514;2022-12-18T11:07:58;22.23;;;12.05;;
55559;SDS011;41414;53.250;6.514;2022-12-18T11:13:08;20.92;;;12.43;;
55559;SDS011;41414;53.250;6.514;2022-12-18T11:15:42;21.92;;;12.32;;
55559;SDS011;41414;53.250;6.514;2022-12-18T11:18:16;19.45;;;12.30;;
55559;SDS011;41414;53.250;6.514;2022-12-18T11:20:50;21.27;;;11.90;;
55559;SDS011;41414;53.250;6.514;2022-12-18T11:23:18;17.30;;;12.02;;
55559;SDS011;41414;53.250;6.514;2022-12-18T11:25:53;18.67;;;10.90;;
55559;SDS011;41414;53.250;6.514;2022-12-18T11:28:36;19.58;;;11.50;;
55559;SDS011;41414;53.250;6.514;2022-12-18T11:31:22;20.20;;;12.02;;
55559;SDS011;41414;53.250;6.514;2022-12-18T11:34:01;17.58;;;10.30;;
55559;SDS011;41414;53.250;6.514;2022-12-18T11:36:32;15.70;;;11.32;;
55559;SDS011;41414;53.250;6.514;2022-12-18T11:39:07;14.43;;;9.88;;
55559;SDS011;41414;53.250;6.514;2022-12-18T11:41:46;17.75;;;10.82;;
55559;SDS011;41414;53.250;6.514;2022-12-18T11:44:42;18.73;;;10.60;;
55559;SDS011;41414;53.250;6.514;2022-12-18T11:47:25;21.13;;;9.57;;
55559;SDS011;41414;53.250;6.514;2022-12-18T11:50:10;16.10;;;9.90;;
55559;SDS011;41414;53.250;6.514;2022-12-18T11:52:41;18.13;;;11.30;;
55559;SDS011;41414;53.250;6.514;2022-12-18T11:55:10;19.17;;;9.88;;
55559;SDS011;41414;53.250;6.514;2022-12-18T11:57:45;17.08;;;9.95;;
55559;SDS011;41414;53.250;6.514;2022-12-18T12:00:22;19.17;;;10.77;;
55559;SDS011;41414;53.250;6.514;2022-12-18T12:03:04;17.30;;;9.90;;
55559;SDS011;41414;53.250;6.514;2022-12-18T12:11:33;17.08;;;10.70;;
55559;SDS011;41414;53.250;6.514;2022-12-18T12:14:05;20.25;;;10.13;;
55559;SDS011;41414;53.250;6.514;2022-12-18T12:16:37;18.10;;;9.45;;
55559;SDS011;41414;53.250;6.514;2022-12-18T12:22:03;15.52;;;9.48;;
55559;SDS011;41414;53.250;6.514;2022-12-18T12:29:50;14.88;;;8.68;;
55559;SDS011;41414;53.250;6.514;2022-12-18T12:38:22;15.50;;;8.90;;
55559;SDS011;41414;53.250;6.514;2022-12-18T12:40:59;13.65;;;8.73;;
55559;SDS011;41414;53.250;6.514;2022-12-18T12:46:03;15.82;;;9.23;;
55559;SDS011;41414;53.250;6.514;2022-12-18T12:48:34;13.82;;;9.10;;
55559;SDS011;41414;53.250;6.514;2022-12-18T12:51:08;15.05;;;8.50;;
55559;SDS011;41414;53.250;6.514;2022-12-18T12:53:40;14.63;;;7.90;;
55559;SDS011;41414;53.250;6.514;2022-12-18T12:56:06;12.77;;;8.18;;
55559;SDS011;41414;53.250;6.514;2022-12-18T13:01:17;14.52;;;8.15;;
55559;SDS011;41414;53.250;6.514;2022-12-18T13:03:53;14.52;;;7.50;;
55559;SDS011;41414;53.250;6.514;2022-12-18T13:06:29;13.40;;;7.07;;
55559;SDS011;41414;53.250;6.514;2022-12-18T13:09:05;14.60;;;8.43;;
55559;SDS011;41414;53.250;6.514;2022-12-18T13:11:38;11.82;;;7.18;;
55559;SDS011;41414;53.250;6.514;2022-12-18T13:17:27;13.40;;;7.78;;
55559;SDS011;41414;53.250;6.514;2022-12-18T13:20:07;14.45;;;7.68;;
55559;SDS011;41414;53.250;6.514;2022-12-18T13:22:37;11.73;;;7.55;;
55559;SDS011;41414;53.250;6.514;2022-12-18T13:35:40;12.55;;;7.28;;
55559;SDS011;41414;53.250;6.514;2022-12-18T13:38:46;14.98;;;8.88;;
55559;SDS011;41414;53.250;6.514;2022-12-18T13:41:01;16.50;;;8.15;;
55559;SDS011;41414;53.250;6.514;2022-12-18T13:43:36;13.77;;;7.70;;
55559;SDS011;41414;53.250;6.514;2022-12-18T13:46:05;12.80;;;7.75;;
55559;SDS011;41414;53.250;6.514;2022-12-18T13:48:48;12.15;;;7.80;;
55559;SDS011;41414;53.250;6.514;2022-12-18T13:51:16;13.43;;;7.50;;
55559;SDS011;41414;53.250;6.514;2022-12-18T13:53:46;13.98;;;7.60;;
55559;SDS011;41414;53.250;6.514;2022-12-18T13:56:27;18.35;;;8.27;;
55559;SDS011;41414;53.250;6.514;2022-12-18T14:01:31;15.32;;;8.48;;
55559;SDS011;41414;53.250;6.514;2022-12-18T14:04:17;11.45;;;7.80;;
55559;SDS011;41414;53.250;6.514;2022-12-18T14:06:53;15.25;;;7.88;;
55559;SDS011;41414;53.250;6.514;2022-12-18T14:09:24;13.75;;;8.05;;
55559;SDS011;41414;53.250;6.514;2022-12-18T14:14:41;13.95;;;8.82;;
55559;SDS011;41414;53.250;6.514;2022-12-18T14:17:10;14.73;;;8.97;;
55559;SDS011;41414;53.250;6.514;2022-12-18T14:19:37;16.83;;;8.73;;
55559;SDS011;41414;53.250;6.514;2022-12-18T14:22:11;13.93;;;7.50;;
55559;SDS011;41414;53.250;6.514;2022-12-18T14:24:41;14.38;;;8.80;;
55559;SDS011;41414;53.250;6.514;2022-12-18T14:27:21;14.13;;;8.40;;
55559;SDS011;41414;53.250;6.514;2022-12-18T14:29:50;14.63;;;8.20;;
55559;SDS011;41414;53.250;6.514;2022-12-18T14:32:17;16.02;;;8.63;;
55559;SDS011;41414;53.250;6.514;2022-12-18T14:34:46;13.68;;;8.60;;
55559;SDS011;41414;53.250;6.514;2022-12-18T14:37:15;16.30;;;8.93;;
55559;SDS011;41414;53.250;6.514;2022-12-18T14:39:53;17.45;;;9.35;;
55559;SDS011;41414;53.250;6.514;2022-12-18T14:42:21;14.02;;;8.60;;
55559;SDS011;41414;53.250;6.514;2022-12-18T14:44:47;14.13;;;8.50;;
55559;SDS011;41414;53.250;6.514;2022-12-18T14:47:14;17.80;;;9.30;;
55559;SDS011;41414;53.250;6.514;2022-12-18T14:49:41;17.38;;;8.77;;
55559;SDS011;41414;53.250;6.514;2022-12-18T14:52:23;14.70;;;8.77;;
55559;SDS011;41414;53.250;6.514;2022-12-18T14:54:53;15.82;;;9.35;;
55559;SDS011;41414;53.250;6.514;2022-12-18T14:57:23;14.55;;;9.23;;
55559;SDS011;41414;53.250;6.514;2022-12-18T14:59:51;19.65;;;10.70;;
55559;SDS011;41414;53.250;6.514;2022-12-18T15:04:45;15.73;;;9.13;;
55559;SDS011;41414;53.250;6.514;2022-12-18T15:07:13;17.73;;;9.82;;
55559;SDS011;41414;53.250;6.514;2022-12-18T15:10:02;16.95;;;9.98;;
55559;SDS011;41414;53.250;6.514;2022-12-18T15:12:37;16.08;;;9.48;;
55559;SDS011;41414;53.250;6.514;2022-12-18T15:17:59;16.60;;;10.13;;
55559;SDS011;41414;53.250;6.514;2022-12-18T15:20:27;18.45;;;9.15;;
55559;SDS011;41414;53.250;6.514;2022-12-18T15:22:56;19.33;;;10.43;;
55559;SDS011;41414;53.250;6.514;2022-12-18T15:25:26;16.08;;;9.07;;
55559;SDS011;41414;53.250;6.514;2022-12-18T15:28:02;15.85;;;9.75;;
55559;SDS011;41414;53.250;6.514;2022-12-18T15:30:28;20.33;;;10.73;;
55559;SDS011;41414;53.250;6.514;2022-12-18T15:35:56;17.08;;;9.77;;
55559;SDS011;41414;53.250;6.514;2022-12-18T15:38:23;17.70;;;9.73;;
55559;SDS011;41414;53.250;6.514;2022-12-18T15:40:49;18.20;;;10.82;;
55559;SDS011;41414;53.250;6.514;2022-12-18T15:43:15;18.17;;;10.75;;
55559;SDS011;41414;53.250;6.514;2022-12-18T15:46:00;18.83;;;10.98;;
55559;SDS011;41414;53.250;6.514;2022-12-18T15:48:27;18.50;;;11.73;;
55559;SDS011;41414;53.250;6.514;2022-12-18T15:50:53;22.70;;;11.73;;
55559;SDS011;41414;53.250;6.514;2022-12-18T15:53:22;20.25;;;11.40;;
55559;SDS011;41414;53.250;6.514;2022-12-18T15:55:50;19.10;;;11.50;;
55559;SDS011;41414;53.250;6.514;2022-12-18T15:58:34;20.73;;;11.10;;
55559;SDS011;41414;53.250;6.514;2022-12-18T16:01:00;18.27;;;11.75;;
55559;SDS011;41414;53.250;6.514;2022-12-18T16:03:27;21.60;;;11.77;;
55559;SDS011;41414;53.250;6.514;2022-12-18T16:05:53;22.92;;;12.40;;
55559;SDS011;41414;53.250;6.514;2022-12-18T16:08:19;19.30;;;12.52;;